sensor_id;sensor_type;location;lat;lon;timestamp;P1;durP1;ratioP1;P2;durP2;ratioP2
5418;SDS011;2732;52.092;11.556;2022-10-16T00:03:34;3.30;;;2.07;;
5418;SDS011;2732;52.092;11.556;2022-10-16T00:08:35;2.23;;;1.73;;
5418;SDS011;2732;52.092;11.556;2022-10-16T00:13:37;2.10;;;2.00;;
5418;SDS011;2732;52.092;11.556;2022-10-16T00:18:40;2.60;;;1.90;;
5418;SDS011;2732;52.092;11.556;2022-10-16T00:23:41;6.40;;;2.10;;
5418;SDS011;2732;52.092;11.556;2022-10-16T00:28:44;2.50;;;2.40;;
5418;SDS011;2732;52.092;11.556;2022-10-16T00:33:47;2.30;;;2.20;;
5418;SDS011;2732;52.092;11.556;2022-10-16T00:38:50;2.33;;;2.17;;
5418;SDS011;2732;52.092;11.556;2022-10-16T00:43:57;3.53;;;1.90;;
5418;SDS011;2732;52.092;11.556;2022-10-16T00:54:14;1.77;;;1.77;;
5418;SDS011;2732;52.092;11.556;2022-10-16T00:59:22;3.00;;;1.70;;
5418;SDS011;2732;52.092;11.556;2022-10-16T01:04:54;1.30;;;1.30;;
5418;SDS011;2732;52.092;11.556;2022-10-16T01:09:57;3.37;;;2.03;;
5418;SDS011;2732;52.092;11.556;2022-10-16T01:20:40;1.23;;;1.23;;
5418;SDS011;2732;52.092;11.556;2022-10-16T01:31:09;1.73;;;1.70;;
5418;SDS011;2732;52.092;11.556;2022-10-16T01:36:15;1.40;;;1.40;;
5418;SDS011;2732;52.092;11.556;2022-10-16T01:41:22;1.17;;;1.10;;
5418;SDS011;2732;52.092;11.556;2022-10-16T01:46:35;1.30;;;1.23;;
5418;SDS011;2732;52.092;11.556;2022-10-16T01:51:40;5.03;;;1.60;;
5418;SDS011;2732;52.092;11.556;2022-10-16T01:56:45;1.50;;;1.50;;
5418;SDS011;2732;52.092;11.556;2022-10-16T02:01:48;2.90;;;2.33;;
5418;SDS011;2732;52.092;11.556;2022-10-16T02:06:58;3.33;;;2.30;;
5418;SDS011;2732;52.092;11.556;2022-10-16T02:12:00;2.20;;;2.10;;
5418;SDS011;2732;52.092;11.556;2022-10-16T02:17:25;2.37;;;2.10;;
5418;SDS011;2732;52.092;11.556;2022-10-16T02:32:45;2.07;;;1.97;;
5418;SDS011;2732;52.092;11.556;2022-10-16T02:37:48;2.80;;;2.07;;
5418;SDS011;2732;52.092;11.556;2022-10-16T02:42:51;1.90;;;1.80;;
5418;SDS011;2732;52.092;11.556;2022-10-16T02:47:54;4.13;;;2.27;;
5418;SDS011;2732;52.092;11.556;2022-10-16T02:52:54;2.60;;;2.00;;
5418;SDS011;2732;52.092;11.556;2022-10-16T02:57:55;2.50;;;2.40;;
5418;SDS011;2732;52.092;11.556;2022-10-16T03:02:56;2.40;;;2.00;;
5418;SDS011;2732;52.092;11.556;2022-10-16T03:07:56;2.90;;;2.70;;
5418;SDS011;2732;52.092;11.556;2022-10-16T03:13:00;2.30;;;2.20;;
5418;SDS011;2732;52.092;11.556;2022-10-16T03:18:00;2.90;;;2.50;;
5418;SDS011;2732;52.092;11.556;2022-10-16T03:23:01;3.53;;;2.70;;
5418;SDS011;2732;52.092;11.556;2022-10-16T03:28:02;2.80;;;2.60;;
5418;SDS011;2732;52.092;11.556;2022-10-16T03:33:03;2.83;;;2.63;;
5418;SDS011;2732;52.092;11.556;2022-10-16T03:38:04;3.00;;;2.60;;
5418;SDS011;2732;52.092;11.556;2022-10-16T03:43:05;2.80;;;2.60;;
5418;SDS011;2732;52.092;11.556;2022-10-16T03:48:06;3.37;;;2.70;;
5418;SDS011;2732;52.092;11.556;2022-10-16T03:53:07;2.80;;;2.60;;
5418;SDS011;2732;52.092;11.556;2022-10-16T03:58:07;2.43;;;2.27;;
5418;SDS011;2732;52.092;11.556;2022-10-16T04:03:08;2.50;;;2.40;;
5418;SDS011;2732;52.092;11.556;2022-10-16T04:08:09;2.80;;;2.70;;
5418;SDS011;2732;52.092;11.556;2022-10-16T04:13:10;3.17;;;2.80;;
5418;SDS011;2732;52.092;11.556;2022-10-16T04:18:11;2.47;;;2.37;;
5418;SDS011;2732;52.092;11.556;2022-10-16T04:23:12;3.83;;;2.80;;
5418;SDS011;2732;52.092;11.556;2022-10-16T04:28:12;2.90;;;2.70;;
5418;SDS011;2732;52.092;11.556;2022-10-16T04:33:13;3.10;;;2.77;;
5418;SDS011;2732;52.092;11.556;2022-10-16T04:38:14;2.83;;;2.73;;
5418;SDS011;2732;52.092;11.556;2022-10-16T04:43:14;11.43;;;3.30;;
5418;SDS011;2732;52.092;11.556;2022-10-16T04:48:15;3.60;;;3.40;;
5418;SDS011;2732;52.092;11.556;2022-10-16T04:53:16;2.97;;;2.77;;
5418;SDS011;2732;52.092;11.556;2022-10-16T04:58:17;3.40;;;3.20;;
5418;SDS011;2732;52.092;11.556;2022-10-16T05:03:17;3.17;;;3.07;;
5418;SDS011;2732;52.092;11.556;2022-10-16T05:08:18;3.10;;;3.00;;
5418;SDS011;2732;52.092;11.556;2022-10-16T05:13:18;3.60;;;3.27;;
5418;SDS011;2732;52.092;11.556;2022-10-16T05:18:19;2.70;;;2.60;;
5418;SDS011;2732;52.092;11.556;2022-10-16T05:23:20;2.73;;;2.63;;
5418;SDS011;2732;52.092;11.556;2022-10-16T05:28:20;3.23;;;3.10;;
5418;SDS011;2732;52.092;11.556;2022-10-16T05:33:22;2.80;;;2.70;;
5418;SDS011;2732;52.092;11.556;2022-10-16T05:38:25;3.40;;;3.30;;
5418;SDS011;2732;52.092;11.556;2022-10-16T05:43:26;2.70;;;2.60;;
5418;SDS011;2732;52.092;11.556;2022-10-16T05:48:28;2.30;;;2.20;;
5418;SDS011;2732;52.092;11.556;2022-10-16T05:53:30;3.67;;;3.50;;
5418;SDS011;2732;52.092;11.556;2022-10-16T05:58:33;3.70;;;3.50;;
5418;SDS011;2732;52.092;11.556;2022-10-16T06:03:35;3.83;;;3.40;;
5418;SDS011;2732;52.092;11.556;2022-10-16T06:08:37;37.27;;;19.37;;
5418;SDS011;2732;52.092;11.556;2022-10-16T06:13:38;24.00;;;14.90;;
5418;SDS011;2732;52.092;11.556;2022-10-16T06:18:42;14.77;;;7.37;;
5418;SDS011;2732;52.092;11.556;2022-10-16T06:23:43;6.93;;;5.00;;
5418;SDS011;2732;52.092;11.556;2022-10-16T06:28:45;5.60;;;4.40;;
5418;SDS011;2732;52.092;11.556;2022-10-16T06:33:49;5.03;;;4.73;;
5418;SDS011;2732;52.092;11.556;2022-10-16T06:38:51;5.20;;;4.87;;
5418;SDS011;2732;52.092;11.556;2022-10-16T06:43:52;4.60;;;4.30;;
5418;SDS011;2732;52.092;11.556;2022-10-16T06:49:01;4.10;;;3.80;;
5418;SDS011;2732;52.092;11.556;2022-10-16T06:54:01;4.07;;;3.70;;
5418;SDS011;2732;52.092;11.556;2022-10-16T06:59:03;4.13;;;3.73;;
5418;SDS011;2732;52.092;11.556;2022-10-16T07:04:04;4.97;;;4.47;;
5418;SDS011;2732;52.092;11.556;2022-10-16T07:09:06;5.20;;;4.20;;
5418;SDS011;2732;52.092;11.556;2022-10-16T07:14:14;3.63;;;3.53;;
5418;SDS011;2732;52.092;11.556;2022-10-16T07:19:18;3.30;;;3.10;;
5418;SDS011;2732;52.092;11.556;2022-10-16T07:24:19;2.87;;;2.63;;
5418;SDS011;2732;52.092;11.556;2022-10-16T07:29:20;3.73;;;3.63;;
5418;SDS011;2732;52.092;11.556;2022-10-16T07:34:21;2.90;;;2.80;;
5418;SDS011;2732;52.092;11.556;2022-10-16T07:39:22;5.17;;;3.27;;
5418;SDS011;2732;52.092;11.556;2022-10-16T07:44:23;2.63;;;2.53;;
5418;SDS011;2732;52.092;11.556;2022-10-16T07:49:24;2.70;;;2.50;;
5418;SDS011;2732;52.092;11.556;2022-10-16T07:54:24;5.90;;;2.30;;
5418;SDS011;2732;52.092;11.556;2022-10-16T07:59:25;2.80;;;2.20;;
5418;SDS011;2732;52.092;11.556;2022-10-16T08:04:26;2.17;;;2.00;;
5418;SDS011;2732;52.092;11.556;2022-10-16T08:09:27;4.93;;;2.40;;
5418;SDS011;2732;52.092;11.556;2022-10-16T08:14:27;2.70;;;2.10;;
5418;SDS011;2732;52.092;11.556;2022-10-16T08:19:28;2.20;;;1.80;;
5418;SDS011;2732;52.092;11.556;2022-10-16T08:24:30;3.50;;;1.87;;
5418;SDS011;2732;52.092;11.556;2022-10-16T08:29:31;2.60;;;2.03;;
5418;SDS011;2732;52.092;11.556;2022-10-16T08:34:31;3.33;;;1.80;;
5418;SDS011;2732;52.092;11.556;2022-10-16T08:39:32;1.70;;;1.60;;
5418;SDS011;2732;52.092;11.556;2022-10-16T08:50:08;1.10;;;1.10;;
5418;SDS011;2732;52.092;11.556;2022-10-16T08:55:24;1.03;;;0.90;;
5418;SDS011;2732;52.092;11.556;2022-10-16T09:00:34;0.80;;;0.80;;
5418;SDS011;2732;52.092;11.556;2022-10-16T09:11:32;1.43;;;0.80;;
5418;SDS011;2732;52.092;11.556;2022-10-16T09:16:55;0.80;;;0.50;;
5418;SDS011;2732;52.092;11.556;2022-10-16T09:22:10;2.37;;;0.70;;
5418;SDS011;2732;52.092;11.556;2022-10-16T09:27:16;2.30;;;0.70;;
5418;SDS011;2732;52.092;11.556;2022-10-16T09:32:20;0.60;;;0.50;;
5418;SDS011;2732;52.092;11.556;2022-10-16T09:37:22;0.70;;;0.70;;
5418;SDS011;2732;52.092;11.556;2022-10-16T09:42:27;1.17;;;0.43;;
5418;SDS011;2732;52.092;11.556;2022-10-16T09:47:35;1.23;;;0.67;;
5418;SDS011;2732;52.092;11.556;2022-10-16T09:52:44;0.57;;;0.57;;
5418;SDS011;2732;52.092;11.556;2022-10-16T09:57:48;1.03;;;0.50;;
5418;SDS011;2732;52.092;11.556;2022-10-16T10:02:53;1.70;;;0.80;;
5418;SDS011;2732;52.092;11.556;2022-10-16T10:07:58;1.27;;;0.67;;
5418;SDS011;2732;52.092;11.556;2022-10-16T10:13:16;1.43;;;0.70;;
5418;SDS011;2732;52.092;11.556;2022-10-16T10:18:22;1.63;;;0.40;;
5418;SDS011;2732;52.092;11.556;2022-10-16T10:23:24;2.70;;;0.57;;
5418;SDS011;2732;52.092;11.556;2022-10-16T10:38:59;0.50;;;0.40;;
5418;SDS011;2732;52.092;11.556;2022-10-16T10:44:08;0.60;;;0.47;;
5418;SDS011;2732;52.092;11.556;2022-10-16T10:49:31;0.60;;;0.43;;
5418;SDS011;2732;52.092;11.556;2022-10-16T11:06:07;1.97;;;1.03;;
5418;SDS011;2732;52.092;11.556;2022-10-16T11:11:15;0.50;;;0.30;;
5418;SDS011;2732;52.092;11.556;2022-10-16T11:16:36;0.60;;;0.50;;
5418;SDS011;2732;52.092;11.556;2022-10-16T11:22:04;0.50;;;0.40;;
5418;SDS011;2732;52.092;11.556;2022-10-16T11:27:19;1.83;;;0.90;;
5418;SDS011;2732;52.092;11.556;2022-10-16T11:38:24;0.80;;;0.50;;
5418;SDS011;2732;52.092;11.556;2022-10-16T11:43:42;0.40;;;0.30;;
5418;SDS011;2732;52.092;11.556;2022-10-16T11:59:42;0.80;;;0.70;;
5418;SDS011;2732;52.092;11.556;2022-10-16T12:05:05;0.50;;;0.50;;
5418;SDS011;2732;52.092;11.556;2022-10-16T12:10:23;1.80;;;0.40;;
5418;SDS011;2732;52.092;11.556;2022-10-16T12:15:32;1.93;;;0.57;;
5418;SDS011;2732;52.092;11.556;2022-10-16T12:20:34;0.63;;;0.40;;
5418;SDS011;2732;52.092;11.556;2022-10-16T12:25:37;1.90;;;0.50;;
5418;SDS011;2732;52.092;11.556;2022-10-16T12:30:56;0.90;;;0.40;;
5418;SDS011;2732;52.092;11.556;2022-10-16T12:36:00;4.20;;;0.50;;
5418;SDS011;2732;52.092;11.556;2022-10-16T12:41:08;2.10;;;0.50;;
5418;SDS011;2732;52.092;11.556;2022-10-16T12:51:24;0.70;;;0.30;;
5418;SDS011;2732;52.092;11.556;2022-10-16T12:56:38;0.83;;;0.43;;
5418;SDS011;2732;52.092;11.556;2022-10-16T13:01:58;0.77;;;0.60;;
5418;SDS011;2732;52.092;11.556;2022-10-16T13:12:51;5.03;;;0.50;;
5418;SDS011;2732;52.092;11.556;2022-10-16T13:18:15;1.47;;;0.70;;
5418;SDS011;2732;52.092;11.556;2022-10-16T13:23:37;1.13;;;0.40;;
5418;SDS011;2732;52.092;11.556;2022-10-16T13:29:00;2.67;;;0.60;;
5418;SDS011;2732;52.092;11.556;2022-10-16T13:34:02;0.40;;;0.30;;
5418;SDS011;2732;52.092;11.556;2022-10-16T13:39:09;2.50;;;0.60;;
5418;SDS011;2732;52.092;11.556;2022-10-16T13:44:20;2.50;;;0.40;;
5418;SDS011;2732;52.092;11.556;2022-10-16T13:49:21;0.60;;;0.57;;
5418;SDS011;2732;52.092;11.556;2022-10-16T13:54:24;1.20;;;0.60;;
5418;SDS011;2732;52.092;11.556;2022-10-16T13:59:32;1.47;;;0.57;;
5418;SDS011;2732;52.092;11.556;2022-10-16T14:04:35;0.40;;;0.30;;
5418;SDS011;2732;52.092;11.556;2022-10-16T14:09:39;2.43;;;0.43;;
5418;SDS011;2732;52.092;11.556;2022-10-16T14:14:40;4.33;;;0.70;;
5418;SDS011;2732;52.092;11.556;2022-10-16T14:19:48;0.50;;;0.40;;
5418;SDS011;2732;52.092;11.556;2022-10-16T14:24:52;2.27;;;0.50;;
5418;SDS011;2732;52.092;11.556;2022-10-16T14:35:28;1.60;;;0.30;;
5418;SDS011;2732;52.092;11.556;2022-10-16T14:40:32;1.17;;;0.40;;
5418;SDS011;2732;52.092;11.556;2022-10-16T14:45:36;0.50;;;0.40;;
5418;SDS011;2732;52.092;11.556;2022-10-16T14:50:36;0.50;;;0.37;;
5418;SDS011;2732;52.092;11.556;2022-10-16T14:55:37;0.70;;;0.30;;
5418;SDS011;2732;52.092;11.556;2022-10-16T15:00:40;0.90;;;0.50;;
5418;SDS011;2732;52.092;11.556;2022-10-16T15:05:41;2.83;;;0.47;;
5418;SDS011;2732;52.092;11.556;2022-10-16T15:10:42;7.33;;;0.57;;
5418;SDS011;2732;52.092;11.556;2022-10-16T15:15:44;2.07;;;0.50;;
5418;SDS011;2732;52.092;11.556;2022-10-16T15:20:47;0.50;;;0.40;;
5418;SDS011;2732;52.092;11.556;2022-10-16T15:25:51;2.53;;;0.63;;
5418;SDS011;2732;52.092;11.556;2022-10-16T15:30:55;0.50;;;0.40;;
5418;SDS011;2732;52.092;11.556;2022-10-16T15:35:57;1.17;;;0.37;;
5418;SDS011;2732;52.092;11.556;2022-10-16T15:40:57;0.80;;;0.43;;
5418;SDS011;2732;52.092;11.556;2022-10-16T15:46:00;0.83;;;0.40;;
5418;SDS011;2732;52.092;11.556;2022-10-16T15:51:06;1.03;;;0.40;;
5418;SDS011;2732;52.092;11.556;2022-10-16T15:56:09;0.47;;;0.30;;
5418;SDS011;2732;52.092;11.556;2022-10-16T16:01:11;0.50;;;0.40;;
5418;SDS011;2732;52.092;11.556;2022-10-16T16:06:12;0.70;;;0.40;;
5418;SDS011;2732;52.092;11.556;2022-10-16T16:11:15;0.80;;;0.43;;
5418;SDS011;2732;52.092;11.556;2022-10-16T16:16:17;1.40;;;0.50;;
5418;SDS011;2732;52.092;11.556;2022-10-16T16:21:19;1.80;;;0.47;;
5418;SDS011;2732;52.092;11.556;2022-10-16T16:26:24;2.50;;;0.50;;
5418;SDS011;2732;52.092;11.556;2022-10-16T16:31:36;0.40;;;0.40;;
5418;SDS011;2732;52.092;11.556;2022-10-16T16:36:36;3.33;;;0.67;;
5418;SDS011;2732;52.092;11.556;2022-10-16T16:41:37;0.60;;;0.50;;
5418;SDS011;2732;52.092;11.556;2022-10-16T16:46:38;0.50;;;0.50;;
5418;SDS011;2732;52.092;11.556;2022-10-16T16:51:39;3.73;;;1.63;;
5418;SDS011;2732;52.092;11.556;2022-10-16T16:56:40;1.10;;;0.53;;
5418;SDS011;2732;52.092;11.556;2022-10-16T17:01:45;1.70;;;0.63;;
5418;SDS011;2732;52.092;11.556;2022-10-16T17:06:46;1.37;;;0.50;;
5418;SDS011;2732;52.092;11.556;2022-10-16T17:11:47;2.97;;;0.70;;
5418;SDS011;2732;52.092;11.556;2022-10-16T17:16:48;2.50;;;0.50;;
5418;SDS011;2732;52.092;11.556;2022-10-16T17:21:49;1.27;;;0.60;;
5418;SDS011;2732;52.092;11.556;2022-10-16T17:26:50;0.70;;;0.70;;
5418;SDS011;2732;52.092;11.556;2022-10-16T17:31:51;1.60;;;1.50;;
5418;SDS011;2732;52.092;11.556;2022-10-16T17:36:52;1.20;;;1.10;;
5418;SDS011;2732;52.092;11.556;2022-10-16T17:41:53;0.90;;;0.90;;
5418;SDS011;2732;52.092;11.556;2022-10-16T17:46:56;2.33;;;1.53;;
5418;SDS011;2732;52.092;11.556;2022-10-16T17:51:56;6.50;;;1.07;;
5418;SDS011;2732;52.092;11.556;2022-10-16T17:56:58;0.93;;;0.60;;
5418;SDS011;2732;52.092;11.556;2022-10-16T18:01:58;1.90;;;1.10;;
5418;SDS011;2732;52.092;11.556;2022-10-16T18:06:59;1.33;;;1.10;;
5418;SDS011;2732;52.092;11.556;2022-10-16T18:12:00;1.97;;;1.23;;
5418;SDS011;2732;52.092;11.556;2022-10-16T18:17:01;1.83;;;1.17;;
5418;SDS011;2732;52.092;11.556;2022-10-16T18:22:02;1.80;;;1.70;;
5418;SDS011;2732;52.092;11.556;2022-10-16T18:27:03;1.60;;;1.50;;
5418;SDS011;2732;52.092;11.556;2022-10-16T18:32:03;3.40;;;2.33;;
5418;SDS011;2732;52.092;11.556;2022-10-16T18:37:04;9.70;;;6.43;;
5418;SDS011;2732;52.092;11.556;2022-10-16T18:42:05;7.83;;;5.20;;
5418;SDS011;2732;52.092;11.556;2022-10-16T18:47:06;4.40;;;4.00;;
5418;SDS011;2732;52.092;11.556;2022-10-16T18:52:07;4.00;;;3.53;;
5418;SDS011;2732;52.092;11.556;2022-10-16T18:57:07;4.10;;;3.80;;
5418;SDS011;2732;52.092;11.556;2022-10-16T19:02:09;3.80;;;2.80;;
5418;SDS011;2732;52.092;11.556;2022-10-16T19:07:11;2.97;;;2.73;;
5418;SDS011;2732;52.092;11.556;2022-10-16T19:12:14;6.30;;;2.73;;
5418;SDS011;2732;52.092;11.556;2022-10-16T19:17:15;3.37;;;2.27;;
5418;SDS011;2732;52.092;11.556;2022-10-16T19:22:16;9.17;;;2.50;;
5418;SDS011;2732;52.092;11.556;2022-10-16T19:27:26;3.87;;;2.90;;
5418;SDS011;2732;52.092;11.556;2022-10-16T19:32:27;2.30;;;2.10;;
5418;SDS011;2732;52.092;11.556;2022-10-16T19:37:28;3.13;;;2.20;;
5418;SDS011;2732;52.092;11.556;2022-10-16T19:42:28;2.20;;;2.00;;
5418;SDS011;2732;52.092;11.556;2022-10-16T19:47:30;2.17;;;1.73;;
5418;SDS011;2732;52.092;11.556;2022-10-16T19:52:31;3.37;;;2.30;;
5418;SDS011;2732;52.092;11.556;2022-10-16T19:57:33;1.57;;;1.40;;
5418;SDS011;2732;52.092;11.556;2022-10-16T20:02:37;1.13;;;1.10;;
5418;SDS011;2732;52.092;11.556;2022-10-16T20:07:37;1.30;;;1.03;;
5418;SDS011;2732;52.092;11.556;2022-10-16T20:12:38;2.60;;;1.30;;
5418;SDS011;2732;52.092;11.556;2022-10-16T20:17:39;1.10;;;1.10;;
5418;SDS011;2732;52.092;11.556;2022-10-16T20:22:40;2.63;;;1.27;;
5418;SDS011;2732;52.092;11.556;2022-10-16T20:27:41;2.60;;;1.17;;
5418;SDS011;2732;52.092;11.556;2022-10-16T20:32:41;1.40;;;1.20;;
5418;SDS011;2732;52.092;11.556;2022-10-16T20:37:42;1.40;;;1.30;;
5418;SDS011;2732;52.092;11.556;2022-10-16T20:42:47;1.10;;;1.00;;
5418;SDS011;2732;52.092;11.556;2022-10-16T20:47:48;3.10;;;1.60;;
5418;SDS011;2732;52.092;11.556;2022-10-16T20:52:49;1.60;;;1.10;;
5418;SDS011;2732;52.092;11.556;2022-10-16T20:57:50;1.17;;;0.80;;
5418;SDS011;2732;52.092;11.556;2022-10-16T21:02:51;1.97;;;1.10;;
5418;SDS011;2732;52.092;11.556;2022-10-16T21:07:52;1.20;;;1.20;;
5418;SDS011;2732;52.092;11.556;2022-10-16T21:12:54;1.80;;;1.40;;
5418;SDS011;2732;52.092;11.556;2022-10-16T21:17:55;1.17;;;1.10;;
5418;SDS011;2732;52.092;11.556;2022-10-16T21:22:55;1.87;;;1.20;;
5418;SDS011;2732;52.092;11.556;2022-10-16T21:27:56;2.73;;;0.80;;
5418;SDS011;2732;52.092;11.556;2022-10-16T21:32:56;1.00;;;1.00;;
5418;SDS011;2732;52.092;11.556;2022-10-16T21:37:57;6.10;;;1.50;;
5418;SDS011;2732;52.092;11.556;2022-10-16T21:42:59;1.40;;;1.20;;
5418;SDS011;2732;52.092;11.556;2022-10-16T21:48:00;1.17;;;0.93;;
5418;SDS011;2732;52.092;11.556;2022-10-16T21:53:01;1.80;;;1.40;;
5418;SDS011;2732;52.092;11.556;2022-10-16T21:58:01;2.70;;;1.40;;
5418;SDS011;2732;52.092;11.556;2022-10-16T22:03:02;2.70;;;1.53;;
5418;SDS011;2732;52.092;11.556;2022-10-16T22:08:03;3.43;;;1.43;;
5418;SDS011;2732;52.092;11.556;2022-10-16T22:13:03;1.87;;;1.40;;
5418;SDS011;2732;52.092;11.556;2022-10-16T22:18:04;0.93;;;0.93;;
5418;SDS011;2732;52.092;11.556;2022-10-16T22:23:05;1.17;;;1.10;;
5418;SDS011;2732;52.092;11.556;2022-10-16T22:28:07;2.63;;;1.30;;
5418;SDS011;2732;52.092;11.556;2022-10-16T22:33:08;1.73;;;1.10;;
5418;SDS011;2732;52.092;11.556;2022-10-16T22:38:09;2.60;;;1.53;;
5418;SDS011;2732;52.092;11.556;2022-10-16T22:43:10;3.20;;;2.30;;
5418;SDS011;2732;52.092;11.556;2022-10-16T22:48:10;2.63;;;2.20;;
5418;SDS011;2732;52.092;11.556;2022-10-16T22:53:11;2.33;;;2.13;;
5418;SDS011;2732;52.092;11.556;2022-10-16T22:58:12;2.20;;;2.00;;
5418;SDS011;2732;52.092;11.556;2022-10-16T23:03:12;3.17;;;2.23;;
5418;SDS011;2732;52.092;11.556;2022-10-16T23:08:13;2.73;;;2.20;;
5418;SDS011;2732;52.092;11.556;2022-10-16T23:13:14;2.67;;;2.10;;
5418;SDS011;2732;52.092;11.556;2022-10-16T23:18:15;4.43;;;2.40;;
5418;SDS011;2732;52.092;11.556;2022-10-16T23:23:15;2.20;;;2.03;;
5418;SDS011;2732;52.092;11.556;2022-10-16T23:28:16;2.50;;;2.30;;
5418;SDS011;2732;52.092;11.556;2022-10-16T23:33:17;8.03;;;2.33;;
5418;SDS011;2732;52.092;11.556;2022-10-16T23:38:17;5.53;;;2.80;;
5418;SDS011;2732;52.092;11.556;2022-10-16T23:43:18;4.50;;;2.77;;
5418;SDS011;2732;52.092;11.556;2022-10-16T23:48:19;4.27;;;3.40;;
5418;SDS011;2732;52.092;11.556;2022-10-16T23:53:19;3.20;;;2.90;;
5418;SDS011;2732;52.092;11.556;2022-10-16T23:58:20;10.33;;;3.07;;
